<?xml version="1.0" encoding="UTF-8" standalone="no" ?>
<gpx xmlns="http://www.topografix.com/GPX/1/1" xmlns:xsi="http://www.w3.org/2001/XMLSchema-instance" xsi:schemaLocation="http://www.topografix.com/GPX/1/1 http://www.topografix.com/GPX/1/1/gpx.xsd" version="1.1" creator="VisuGPX - https://www.visugpx.com">
  <metadata>
    <name>7457154-Suisse Normande</name>
  </metadata>
  <trk>
    <name><![CDATA[7457154-Suisse Normande]]></name>
    <trkseg>
      <trkpt lat="48.91649" lon="-0.48202">
        <ele>69</ele>
        <time>2018-03-02T19:58:33Z</time>
      </trkpt>
      <trkpt lat="48.91579" lon="-0.47947">
        <ele>77</ele>
        <time>2018-03-02T19:59:33Z</time>
      </trkpt>
      <trkpt lat="48.91649" lon="-0.47829">
        <ele>67</ele>
        <time>2018-03-02T20:00:33Z</time>
      </trkpt>
      <trkpt lat="48.91657" lon="-0.47725">
        <ele>55</ele>
        <time>2018-03-02T20:01:33Z</time>
      </trkpt>
      <trkpt lat="48.91646" lon="-0.47657">
        <ele>45</ele>
        <time>2018-03-02T20:02:33Z</time>
      </trkpt>
      <trkpt lat="48.91717" lon="-0.47099">
        <ele>49</ele>
        <time>2018-03-02T20:03:33Z</time>
      </trkpt>
      <trkpt lat="48.91855" lon="-0.46983">
        <ele>72</ele>
        <time>2018-03-02T20:04:33Z</time>
      </trkpt>
      <trkpt lat="48.92038" lon="-0.47009">
        <ele>80</ele>
        <time>2018-03-02T20:05:33Z</time>
      </trkpt>
      <trkpt lat="48.92535" lon="-0.46842">
        <ele>128</ele>
        <time>2018-03-02T20:06:33Z</time>
      </trkpt>
      <trkpt lat="48.92653" lon="-0.46872">
        <ele>128</ele>
        <time>2018-03-02T20:07:33Z</time>
      </trkpt>
      <trkpt lat="48.92932" lon="-0.47134">
        <ele>145</ele>
        <time>2018-03-02T20:08:33Z</time>
      </trkpt>
      <trkpt lat="48.92997" lon="-0.474">
        <ele>149</ele>
        <time>2018-03-02T20:09:33Z</time>
      </trkpt>
      <trkpt lat="48.92977" lon="-0.4764">
        <ele>147</ele>
        <time>2018-03-02T20:10:33Z</time>
      </trkpt>
      <trkpt lat="48.93045" lon="-0.47576">
        <ele>157</ele>
        <time>2018-03-02T20:11:33Z</time>
      </trkpt>
      <trkpt lat="48.93051" lon="-0.47503">
        <ele>164</ele>
        <time>2018-03-02T20:12:33Z</time>
      </trkpt>
      <trkpt lat="48.93048" lon="-0.47301">
        <ele>182</ele>
        <time>2018-03-02T20:13:33Z</time>
      </trkpt>
      <trkpt lat="48.93015" lon="-0.4723">
        <ele>177</ele>
        <time>2018-03-02T20:14:33Z</time>
      </trkpt>
      <trkpt lat="48.93039" lon="-0.47162">
        <ele>194</ele>
        <time>2018-03-02T20:15:33Z</time>
      </trkpt>
      <trkpt lat="48.93031" lon="-0.47086">
        <ele>207</ele>
        <time>2018-03-02T20:16:33Z</time>
      </trkpt>
      <trkpt lat="48.92963" lon="-0.47061">
        <ele>184</ele>
        <time>2018-03-02T20:17:33Z</time>
      </trkpt>
      <trkpt lat="48.92963" lon="-0.4699">
        <ele>198</ele>
        <time>2018-03-02T20:18:33Z</time>
      </trkpt>
      <trkpt lat="48.93" lon="-0.46975">
        <ele>214</ele>
        <time>2018-03-02T20:19:33Z</time>
      </trkpt>
      <trkpt lat="48.9309" lon="-0.46666">
        <ele>230</ele>
        <time>2018-03-02T20:20:33Z</time>
      </trkpt>
      <trkpt lat="48.92941" lon="-0.4646">
        <ele>234</ele>
        <time>2018-03-02T20:21:33Z</time>
      </trkpt>
      <trkpt lat="48.92853" lon="-0.46375">
        <ele>233</ele>
        <time>2018-03-02T20:22:33Z</time>
      </trkpt>
      <trkpt lat="48.92797" lon="-0.4631">
        <ele>233</ele>
        <time>2018-03-02T20:23:33Z</time>
      </trkpt>
      <trkpt lat="48.92746" lon="-0.46267">
        <ele>233</ele>
        <time>2018-03-02T20:24:33Z</time>
      </trkpt>
      <trkpt lat="48.9271" lon="-0.46186">
        <ele>233</ele>
        <time>2018-03-02T20:25:33Z</time>
      </trkpt>
      <trkpt lat="48.92653" lon="-0.45993">
        <ele>235</ele>
        <time>2018-03-02T20:26:33Z</time>
      </trkpt>
      <trkpt lat="48.92425" lon="-0.45606">
        <ele>243</ele>
        <time>2018-03-02T20:27:33Z</time>
      </trkpt>
      <trkpt lat="48.92377" lon="-0.45568">
        <ele>242</ele>
        <time>2018-03-02T20:28:33Z</time>
      </trkpt>
      <trkpt lat="48.92323" lon="-0.45495">
        <ele>241</ele>
        <time>2018-03-02T20:29:33Z</time>
      </trkpt>
      <trkpt lat="48.92472" lon="-0.45318">
        <ele>230</ele>
        <time>2018-03-02T20:30:33Z</time>
      </trkpt>
      <trkpt lat="48.92549" lon="-0.454">
        <ele>225</ele>
        <time>2018-03-02T20:31:33Z</time>
      </trkpt>
      <trkpt lat="48.92529" lon="-0.45318">
        <ele>228</ele>
        <time>2018-03-02T20:32:33Z</time>
      </trkpt>
      <trkpt lat="48.92568" lon="-0.45228">
        <ele>231</ele>
        <time>2018-03-02T20:33:33Z</time>
      </trkpt>
      <trkpt lat="48.92537" lon="-0.44941">
        <ele>240</ele>
        <time>2018-03-02T20:34:33Z</time>
      </trkpt>
      <trkpt lat="48.92487" lon="-0.44559">
        <ele>246</ele>
        <time>2018-03-02T20:35:33Z</time>
      </trkpt>
      <trkpt lat="48.92216" lon="-0.44813">
        <ele>250</ele>
        <time>2018-03-02T20:36:33Z</time>
      </trkpt>
      <trkpt lat="48.9212" lon="-0.44834">
        <ele>248</ele>
        <time>2018-03-02T20:37:33Z</time>
      </trkpt>
      <trkpt lat="48.92089" lon="-0.44576">
        <ele>254</ele>
        <time>2018-03-02T20:38:33Z</time>
      </trkpt>
      <trkpt lat="48.92004" lon="-0.44336">
        <ele>262</ele>
        <time>2018-03-02T20:39:33Z</time>
      </trkpt>
      <trkpt lat="48.919" lon="-0.44426">
        <ele>261</ele>
        <time>2018-03-02T20:40:33Z</time>
      </trkpt>
      <trkpt lat="48.91497" lon="-0.44374">
        <ele>230</ele>
        <time>2018-03-02T20:41:33Z</time>
      </trkpt>
      <trkpt lat="48.91677" lon="-0.44078">
        <ele>241</ele>
        <time>2018-03-02T20:42:33Z</time>
      </trkpt>
      <trkpt lat="48.91593" lon="-0.44014">
        <ele>233</ele>
        <time>2018-03-02T20:43:33Z</time>
      </trkpt>
      <trkpt lat="48.91562" lon="-0.43919">
        <ele>224</ele>
        <time>2018-03-02T20:44:33Z</time>
      </trkpt>
      <trkpt lat="48.91398" lon="-0.44095">
        <ele>227</ele>
        <time>2018-03-02T20:45:33Z</time>
      </trkpt>
      <trkpt lat="48.91147" lon="-0.4419">
        <ele>191</ele>
        <time>2018-03-02T20:46:33Z</time>
      </trkpt>
      <trkpt lat="48.90964" lon="-0.44147">
        <ele>184</ele>
        <time>2018-03-02T20:47:33Z</time>
      </trkpt>
      <trkpt lat="48.90958" lon="-0.44078">
        <ele>180</ele>
        <time>2018-03-02T20:48:33Z</time>
      </trkpt>
      <trkpt lat="48.90936" lon="-0.43941">
        <ele>167</ele>
        <time>2018-03-02T20:49:33Z</time>
      </trkpt>
      <trkpt lat="48.90812" lon="-0.43907">
        <ele>166</ele>
        <time>2018-03-02T20:50:33Z</time>
      </trkpt>
      <trkpt lat="48.9084" lon="-0.43834">
        <ele>158</ele>
        <time>2018-03-02T20:51:33Z</time>
      </trkpt>
      <trkpt lat="48.90879" lon="-0.43765">
        <ele>169</ele>
        <time>2018-03-02T20:52:33Z</time>
      </trkpt>
      <trkpt lat="48.90874" lon="-0.43624">
        <ele>180</ele>
        <time>2018-03-02T20:53:33Z</time>
      </trkpt>
      <trkpt lat="48.90834" lon="-0.43392">
        <ele>186</ele>
        <time>2018-03-02T20:54:33Z</time>
      </trkpt>
      <trkpt lat="48.90828" lon="-0.43181">
        <ele>194</ele>
        <time>2018-03-02T20:55:33Z</time>
      </trkpt>
      <trkpt lat="48.90794" lon="-0.42748">
        <ele>178</ele>
        <time>2018-03-02T20:56:33Z</time>
      </trkpt>
      <trkpt lat="48.90935" lon="-0.42529">
        <ele>187</ele>
        <time>2018-03-02T20:57:33Z</time>
      </trkpt>
      <trkpt lat="48.90679" lon="-0.41972">
        <ele>157</ele>
        <time>2018-03-02T20:58:33Z</time>
      </trkpt>
      <trkpt lat="48.90499" lon="-0.42006">
        <ele>159</ele>
        <time>2018-03-02T20:59:33Z</time>
      </trkpt>
      <trkpt lat="48.90473" lon="-0.41834">
        <ele>144</ele>
        <time>2018-03-02T21:00:33Z</time>
      </trkpt>
      <trkpt lat="48.90383" lon="-0.41808">
        <ele>146</ele>
        <time>2018-03-02T21:01:33Z</time>
      </trkpt>
      <trkpt lat="48.90335" lon="-0.41435">
        <ele>174</ele>
        <time>2018-03-02T21:02:33Z</time>
      </trkpt>
      <trkpt lat="48.90253" lon="-0.40954">
        <ele>197</ele>
        <time>2018-03-02T21:03:33Z</time>
      </trkpt>
      <trkpt lat="48.90202" lon="-0.40933">
        <ele>202</ele>
        <time>2018-03-02T21:04:33Z</time>
      </trkpt>
      <trkpt lat="48.90185" lon="-0.41065">
        <ele>204</ele>
        <time>2018-03-02T21:05:33Z</time>
      </trkpt>
      <trkpt lat="48.90165" lon="-0.40894">
        <ele>202</ele>
        <time>2018-03-02T21:06:33Z</time>
      </trkpt>
      <trkpt lat="48.90284" lon="-0.40907">
        <ele>195</ele>
        <time>2018-03-02T21:07:33Z</time>
      </trkpt>
      <trkpt lat="48.90304" lon="-0.40825">
        <ele>190</ele>
        <time>2018-03-02T21:08:33Z</time>
      </trkpt>
      <trkpt lat="48.90196" lon="-0.40816">
        <ele>192</ele>
        <time>2018-03-02T21:09:33Z</time>
      </trkpt>
      <trkpt lat="48.90143" lon="-0.40117">
        <ele>129</ele>
        <time>2018-03-02T21:10:33Z</time>
      </trkpt>
      <trkpt lat="48.89971" lon="-0.39954">
        <ele>131</ele>
        <time>2018-03-02T21:11:33Z</time>
      </trkpt>
      <trkpt lat="48.89841" lon="-0.3992">
        <ele>124</ele>
        <time>2018-03-02T21:12:33Z</time>
      </trkpt>
      <trkpt lat="48.89782" lon="-0.39864">
        <ele>135</ele>
        <time>2018-03-02T21:13:33Z</time>
      </trkpt>
      <trkpt lat="48.89875" lon="-0.39671">
        <ele>151</ele>
        <time>2018-03-02T21:14:33Z</time>
      </trkpt>
      <trkpt lat="48.89869" lon="-0.39593">
        <ele>156</ele>
        <time>2018-03-02T21:15:33Z</time>
      </trkpt>
      <trkpt lat="48.8983" lon="-0.3949">
        <ele>168</ele>
        <time>2018-03-02T21:16:33Z</time>
      </trkpt>
      <trkpt lat="48.89821" lon="-0.39619">
        <ele>160</ele>
        <time>2018-03-02T21:17:33Z</time>
      </trkpt>
      <trkpt lat="48.89664" lon="-0.39847">
        <ele>159</ele>
        <time>2018-03-02T21:18:33Z</time>
      </trkpt>
      <trkpt lat="48.89469" lon="-0.39959">
        <ele>158</ele>
        <time>2018-03-02T21:19:33Z</time>
      </trkpt>
      <trkpt lat="48.89288" lon="-0.4004">
        <ele>150</ele>
        <time>2018-03-02T21:20:33Z</time>
      </trkpt>
      <trkpt lat="48.89085" lon="-0.40354">
        <ele>131</ele>
        <time>2018-03-02T21:21:33Z</time>
      </trkpt>
      <trkpt lat="48.89147" lon="-0.40315">
        <ele>122</ele>
        <time>2018-03-02T21:22:33Z</time>
      </trkpt>
      <trkpt lat="48.89099" lon="-0.40795">
        <ele>106</ele>
        <time>2018-03-02T21:23:33Z</time>
      </trkpt>
      <trkpt lat="48.89136" lon="-0.41048">
        <ele>81</ele>
        <time>2018-03-02T21:24:33Z</time>
      </trkpt>
      <trkpt lat="48.89026" lon="-0.41456">
        <ele>54</ele>
        <time>2018-03-02T21:25:33Z</time>
      </trkpt>
      <trkpt lat="48.89082" lon="-0.41438">
        <ele>54</ele>
        <time>2018-03-02T21:26:33Z</time>
      </trkpt>
      <trkpt lat="48.89127" lon="-0.41516">
        <ele>62</ele>
        <time>2018-03-02T21:27:33Z</time>
      </trkpt>
      <trkpt lat="48.89097" lon="-0.4146">
        <ele>57</ele>
        <time>2018-03-02T21:28:33Z</time>
      </trkpt>
      <trkpt lat="48.89147" lon="-0.41336">
        <ele>75</ele>
        <time>2018-03-02T21:29:33Z</time>
      </trkpt>
      <trkpt lat="48.89155" lon="-0.41482">
        <ele>71</ele>
        <time>2018-03-02T21:30:33Z</time>
      </trkpt>
      <trkpt lat="48.89243" lon="-0.41619">
        <ele>86</ele>
        <time>2018-03-02T21:31:33Z</time>
      </trkpt>
      <trkpt lat="48.8933" lon="-0.41653">
        <ele>115</ele>
        <time>2018-03-02T21:32:33Z</time>
      </trkpt>
      <trkpt lat="48.89347" lon="-0.41894">
        <ele>120</ele>
        <time>2018-03-02T21:33:33Z</time>
      </trkpt>
      <trkpt lat="48.8911" lon="-0.42855">
        <ele>112</ele>
        <time>2018-03-02T21:34:33Z</time>
      </trkpt>
      <trkpt lat="48.89429" lon="-0.43048">
        <ele>86</ele>
        <time>2018-03-02T21:35:33Z</time>
      </trkpt>
      <trkpt lat="48.89443" lon="-0.42962">
        <ele>89</ele>
        <time>2018-03-02T21:36:33Z</time>
      </trkpt>
      <trkpt lat="48.89483" lon="-0.42967">
        <ele>89</ele>
        <time>2018-03-02T21:37:33Z</time>
      </trkpt>
      <trkpt lat="48.89536" lon="-0.43121">
        <ele>81</ele>
        <time>2018-03-02T21:38:33Z</time>
      </trkpt>
      <trkpt lat="48.89635" lon="-0.43134">
        <ele>81</ele>
        <time>2018-03-02T21:39:33Z</time>
      </trkpt>
      <trkpt lat="48.89675" lon="-0.4307">
        <ele>83</ele>
        <time>2018-03-02T21:40:33Z</time>
      </trkpt>
      <trkpt lat="48.89751" lon="-0.43091">
        <ele>92</ele>
        <time>2018-03-02T21:41:33Z</time>
      </trkpt>
      <trkpt lat="48.89553" lon="-0.43795">
        <ele>74</ele>
        <time>2018-03-02T21:42:33Z</time>
      </trkpt>
      <trkpt lat="48.8959" lon="-0.43997">
        <ele>51</ele>
        <time>2018-03-02T21:43:33Z</time>
      </trkpt>
      <trkpt lat="48.8972" lon="-0.44172">
        <ele>57</ele>
        <time>2018-03-02T21:44:33Z</time>
      </trkpt>
      <trkpt lat="48.89745" lon="-0.44323">
        <ele>57</ele>
        <time>2018-03-02T21:45:33Z</time>
      </trkpt>
      <trkpt lat="48.89691" lon="-0.44481">
        <ele>49</ele>
        <time>2018-03-02T21:46:33Z</time>
      </trkpt>
      <trkpt lat="48.89683" lon="-0.44632">
        <ele>50</ele>
        <time>2018-03-02T21:47:33Z</time>
      </trkpt>
      <trkpt lat="48.89762" lon="-0.44649">
        <ele>67</ele>
        <time>2018-03-02T21:48:33Z</time>
      </trkpt>
      <trkpt lat="48.89799" lon="-0.44705">
        <ele>74</ele>
        <time>2018-03-02T21:49:33Z</time>
      </trkpt>
      <trkpt lat="48.89677" lon="-0.44748">
        <ele>60</ele>
        <time>2018-03-02T21:50:33Z</time>
      </trkpt>
      <trkpt lat="48.89697" lon="-0.44868">
        <ele>69</ele>
        <time>2018-03-02T21:51:33Z</time>
      </trkpt>
      <trkpt lat="48.89756" lon="-0.44893">
        <ele>76</ele>
        <time>2018-03-02T21:52:33Z</time>
      </trkpt>
      <trkpt lat="48.89787" lon="-0.45065">
        <ele>73</ele>
        <time>2018-03-02T21:53:33Z</time>
      </trkpt>
      <trkpt lat="48.89762" lon="-0.45293">
        <ele>67</ele>
        <time>2018-03-02T21:54:33Z</time>
      </trkpt>
      <trkpt lat="48.89988" lon="-0.45237">
        <ele>80</ele>
        <time>2018-03-02T21:55:33Z</time>
      </trkpt>
      <trkpt lat="48.90157" lon="-0.45241">
        <ele>79</ele>
        <time>2018-03-02T21:56:33Z</time>
      </trkpt>
      <trkpt lat="48.90309" lon="-0.45117">
        <ele>87</ele>
        <time>2018-03-02T21:57:33Z</time>
      </trkpt>
      <trkpt lat="48.90349" lon="-0.45009">
        <ele>95</ele>
        <time>2018-03-02T21:58:33Z</time>
      </trkpt>
      <trkpt lat="48.90371" lon="-0.45074">
        <ele>93</ele>
        <time>2018-03-02T21:59:33Z</time>
      </trkpt>
      <trkpt lat="48.90411" lon="-0.45026">
        <ele>100</ele>
        <time>2018-03-02T22:00:33Z</time>
      </trkpt>
      <trkpt lat="48.90772" lon="-0.45031">
        <ele>139</ele>
        <time>2018-03-02T22:01:33Z</time>
      </trkpt>
      <trkpt lat="48.90873" lon="-0.45121">
        <ele>139</ele>
        <time>2018-03-02T22:02:33Z</time>
      </trkpt>
      <trkpt lat="48.90961" lon="-0.45074">
        <ele>147</ele>
        <time>2018-03-02T22:03:33Z</time>
      </trkpt>
      <trkpt lat="48.90941" lon="-0.45172">
        <ele>145</ele>
        <time>2018-03-02T22:04:33Z</time>
      </trkpt>
      <trkpt lat="48.9095" lon="-0.454">
        <ele>146</ele>
        <time>2018-03-02T22:05:33Z</time>
      </trkpt>
      <trkpt lat="48.91031" lon="-0.45571">
        <ele>137</ele>
        <time>2018-03-02T22:06:33Z</time>
      </trkpt>
      <trkpt lat="48.91029" lon="-0.45653">
        <ele>124</ele>
        <time>2018-03-02T22:07:33Z</time>
      </trkpt>
      <trkpt lat="48.91074" lon="-0.45784">
        <ele>127</ele>
        <time>2018-03-02T22:08:33Z</time>
      </trkpt>
      <trkpt lat="48.91084" lon="-0.46026">
        <ele>117</ele>
        <time>2018-03-02T22:09:33Z</time>
      </trkpt>
      <trkpt lat="48.91108" lon="-0.46065">
        <ele>112</ele>
        <time>2018-03-02T22:10:33Z</time>
      </trkpt>
      <trkpt lat="48.91102" lon="-0.46136">
        <ele>106</ele>
        <time>2018-03-02T22:11:33Z</time>
      </trkpt>
      <trkpt lat="48.91129" lon="-0.46209">
        <ele>105</ele>
        <time>2018-03-02T22:12:33Z</time>
      </trkpt>
      <trkpt lat="48.91113" lon="-0.46335">
        <ele>95</ele>
        <time>2018-03-02T22:13:33Z</time>
      </trkpt>
      <trkpt lat="48.91134" lon="-0.46404">
        <ele>101</ele>
        <time>2018-03-02T22:14:33Z</time>
      </trkpt>
      <trkpt lat="48.91122" lon="-0.46483">
        <ele>95</ele>
        <time>2018-03-02T22:15:33Z</time>
      </trkpt>
      <trkpt lat="48.91139" lon="-0.46516">
        <ele>99</ele>
        <time>2018-03-02T22:16:33Z</time>
      </trkpt>
      <trkpt lat="48.91112" lon="-0.46584">
        <ele>89</ele>
        <time>2018-03-02T22:17:33Z</time>
      </trkpt>
      <trkpt lat="48.91137" lon="-0.46608">
        <ele>94</ele>
        <time>2018-03-02T22:18:33Z</time>
      </trkpt>
      <trkpt lat="48.91134" lon="-0.46765">
        <ele>92</ele>
        <time>2018-03-02T22:19:33Z</time>
      </trkpt>
      <trkpt lat="48.91113" lon="-0.46803">
        <ele>86</ele>
        <time>2018-03-02T22:20:33Z</time>
      </trkpt>
      <trkpt lat="48.91112" lon="-0.4688">
        <ele>89</ele>
        <time>2018-03-02T22:21:33Z</time>
      </trkpt>
      <trkpt lat="48.91086" lon="-0.46962">
        <ele>87</ele>
        <time>2018-03-02T22:22:33Z</time>
      </trkpt>
      <trkpt lat="48.91153" lon="-0.47065">
        <ele>87</ele>
        <time>2018-03-02T22:23:33Z</time>
      </trkpt>
      <trkpt lat="48.91213" lon="-0.4708">
        <ele>77</ele>
        <time>2018-03-02T22:24:33Z</time>
      </trkpt>
      <trkpt lat="48.91282" lon="-0.4723">
        <ele>53</ele>
        <time>2018-03-02T22:25:33Z</time>
      </trkpt>
      <trkpt lat="48.9135" lon="-0.47198">
        <ele>49</ele>
        <time>2018-03-02T22:26:33Z</time>
      </trkpt>
      <trkpt lat="48.91383" lon="-0.4737">
        <ele>41</ele>
        <time>2018-03-02T22:27:33Z</time>
      </trkpt>
      <trkpt lat="48.91666" lon="-0.47355">
        <ele>39</ele>
        <time>2018-03-02T22:28:33Z</time>
      </trkpt>
      <trkpt lat="48.91635" lon="-0.47657">
        <ele>45</ele>
        <time>2018-03-02T22:29:33Z</time>
      </trkpt>
      <trkpt lat="48.9163" lon="-0.47859">
        <ele>70</ele>
        <time>2018-03-02T22:30:33Z</time>
      </trkpt>
      <trkpt lat="48.91569" lon="-0.47932">
        <ele>77</ele>
        <time>2018-03-02T22:31:33Z</time>
      </trkpt>
      <trkpt lat="48.91655" lon="-0.48224">
        <ele>68</ele>
        <time>2018-03-02T22:32:33Z</time>
      </trkpt>
    </trkseg>
  </trk>
</gpx>